Time;durP1;ratioP1;P1;durP2;ratioP2;P2;SDS_P1;SDS_P2;PMS_P1;PMS_P2;Temp;Humidity;BMP_temperature;BMP_pressure;BME280_temperature;BME280_humidity;BME280_pressure;Samples;Min_cycle;Max_cycle;Signal;HPM_P1;HPM_P2
2023/09/13 00:00:28;;;;;;;9.63;6.95;;;19.80;99.90;;;;;;5015733;28;20427;-65
2023/09/13 00:02:54;;;;;;;9.38;6.72;;;19.90;99.90;;;;;;5009769;28;20442;-65
2023/09/13 00:05:21;;;;;;;8.90;6.50;;;19.90;99.90;;;;;;4995402;28;20058;-65
2023/09/13 00:07:47;;;;;;;11.40;7.43;;;19.80;99.90;;;;;;4996452;28;20493;-65
2023/09/13 00:10:13;;;;;;;8.95;6.93;;;19.80;99.90;;;;;;4995730;28;20054;-65
2023/09/13 00:12:40;;;;;;;9.68;6.78;;;19.90;99.90;;;;;;4999403;28;20061;-65
2023/09/13 00:15:06;;;;;;;9.75;6.80;;;19.90;99.90;;;;;;5015655;28;20046;-66
2023/09/13 00:17:33;;;;;;;12.07;6.93;;;19.90;99.90;;;;;;5014943;28;20108;-65
2023/09/13 00:19:59;;;;;;;8.82;6.80;;;19.70;99.90;;;;;;5015322;28;20073;-65
2023/09/13 00:22:26;;;;;;;8.80;6.93;;;19.70;99.90;;;;;;5013913;28;20042;-65
2023/09/13 00:24:52;;;;;;;8.00;7.00;;;19.70;99.90;;;;;;4995634;28;20046;-65
2023/09/13 00:27:18;;;;;;;9.77;7.18;;;19.80;99.90;;;;;;4995879;28;20431;-66
2023/09/13 00:29:45;;;;;;;9.35;6.72;;;19.70;99.90;;;;;;4995151;28;20062;-65
2023/09/13 00:32:11;;;;;;;10.13;7.30;;;19.70;99.90;;;;;;4995367;28;20051;-65
2023/09/13 00:34:37;;;;;;;11.43;6.70;;;19.70;99.90;;;;;;5009586;28;20121;-65
2023/09/13 00:37:03;;;;;;;11.73;7.28;;;19.60;99.90;;;;;;5014782;28;20045;-65
2023/09/13 00:39:30;;;;;;;10.43;6.97;;;19.60;99.90;;;;;;5014967;28;20076;-66
2023/09/13 00:41:57;;;;;;;11.38;7.35;;;19.60;99.90;;;;;;5014999;28;20481;-65
2023/09/13 00:44:24;;;;;;;12.02;7.78;;;19.50;99.90;;;;;;4997430;28;20084;-66
2023/09/13 00:46:50;;;;;;;9.40;7.38;;;19.50;99.90;;;;;;4995300;28;20054;-65
2023/09/13 00:49:17;;;;;;;8.88;6.97;;;19.50;99.90;;;;;;4994925;28;20054;-64
2023/09/13 00:51:43;;;;;;;11.02;8.30;;;19.40;99.90;;;;;;4995348;28;20126;-64
2023/09/13 00:54:09;;;;;;;9.73;6.47;;;19.40;99.90;;;;;;5010199;28;20355;-64
2023/09/13 00:56:36;;;;;;;15.05;7.85;;;19.30;99.90;;;;;;5014741;28;20045;-65
2023/09/13 00:59:03;;;;;;;12.25;8.27;;;19.50;99.90;;;;;;5014934;28;20065;-65
2023/09/13 01:01:30;;;;;;;9.90;7.25;;;19.50;99.90;;;;;;5014303;28;20133;-66
2023/09/13 01:03:57;;;;;;;10.48;7.22;;;19.50;99.90;;;;;;5000797;28;20105;-66
2023/09/13 01:06:23;;;;;;;9.93;7.22;;;19.40;99.90;;;;;;4994519;28;20343;-66
2023/09/13 01:08:50;;;;;;;9.93;7.63;;;19.40;99.90;;;;;;4995012;28;20470;-65
2023/09/13 01:11:16;;;;;;;11.60;7.75;;;19.40;99.90;;;;;;4995139;28;20061;-66
2023/09/13 01:13:42;;;;;;;10.57;7.32;;;19.40;99.90;;;;;;5006221;28;20430;-66
2023/09/13 01:16:38;;;;;;;10.43;7.55;;;19.30;99.90;;;;;;5014431;28;20053;-65
2023/09/13 01:19:41;;;;;;;9.23;6.97;;;19.40;99.90;;;;;;5004465;28;20454;-66
2023/09/13 01:22:46;;;;;;;9.52;7.97;;;19.30;99.90;;;;;;5014063;28;20136;-65
2023/09/13 01:25:45;;;;;;;16.95;8.73;;;19.30;99.90;;;;;;4926423;28;20460;-63
2023/09/13 01:28:12;;;;;;;14.27;8.40;;;19.30;99.90;;;;;;4975365;28;20055;-64
2023/09/13 01:30:41;;;;;;;12.38;8.32;;;19.20;99.90;;;;;;4975042;28;20061;-65
2023/09/13 01:33:07;;;;;;;11.73;8.30;;;19.30;99.90;;;;;;4988568;28;20050;-64
2023/09/13 01:35:33;;;;;;;11.63;7.85;;;19.30;99.90;;;;;;5013851;28;20045;-67
2023/09/13 01:38:00;;;;;;;12.40;8.25;;;19.20;99.90;;;;;;5014276;28;20426;-65
2023/09/13 01:40:32;;;;;;;14.18;8.85;;;19.20;99.90;;;;;;5013704;28;20430;-65
2023/09/13 01:43:01;;;;;;;15.52;8.77;;;19.30;99.90;;;;;;5008474;28;20358;-65
2023/09/13 01:45:29;;;;;;;14.13;8.88;;;19.30;99.90;;;;;;4992869;28;20458;-66
2023/09/13 01:47:55;;;;;;;11.07;8.35;;;19.20;99.90;;;;;;4994342;28;20347;-65
2023/09/13 01:50:22;;;;;;;14.00;8.73;;;19.10;99.90;;;;;;5008897;28;20344;-65
2023/09/13 01:52:48;;;;;;;11.45;7.97;;;19.10;99.90;;;;;;4997728;28;20383;-65
2023/09/13 01:55:14;;;;;;;11.80;9.35;;;19.20;99.90;;;;;;5013583;28;20049;-65
2023/09/13 01:57:41;;;;;;;14.10;9.23;;;19.20;99.90;;;;;;5013363;28;20050;-64
2023/09/13 02:00:07;;;;;;;12.23;9.13;;;19.10;99.90;;;;;;5013139;28;20050;-65
2023/09/13 02:02:34;;;;;;;14.15;8.70;;;19.10;99.90;;;;;;5011379;28;20419;-66
2023/09/13 02:05:00;;;;;;;12.60;7.97;;;19.10;99.90;;;;;;4993863;28;20354;-64
2023/09/13 02:07:26;;;;;;;12.82;8.88;;;19.10;99.90;;;;;;4994339;28;20060;-65
2023/09/13 02:09:54;;;;;;;18.02;8.10;;;19.10;99.90;;;;;;4993638;28;20447;-65
2023/09/13 02:12:20;;;;;;;10.75;8.10;;;19.00;99.90;;;;;;4993770;28;20058;-65
2023/09/13 02:14:46;;;;;;;14.07;8.48;;;19.00;99.90;;;;;;5012801;28;20335;-64
2023/09/13 02:17:13;;;;;;;14.85;8.88;;;19.00;99.90;;;;;;5011804;28;20046;-66
2023/09/13 02:19:39;;;;;;;12.40;7.88;;;19.00;99.90;;;;;;5012826;28;20417;-64
2023/09/13 02:22:05;;;;;;;12.38;7.68;;;19.00;99.90;;;;;;5013294;28;20419;-64
2023/09/13 02:24:32;;;;;;;14.48;8.30;;;18.90;99.90;;;;;;4994424;28;20125;-65
2023/09/13 02:26:59;;;;;;;15.18;8.52;;;18.90;99.90;;;;;;4992374;28;20065;-64
2023/09/13 02:29:26;;;;;;;13.38;8.07;;;19.00;99.90;;;;;;4993046;28;20110;-65
2023/09/13 02:31:52;;;;;;;11.75;7.35;;;18.90;99.90;;;;;;4993306;28;20054;-65
2023/09/13 02:34:18;;;;;;;12.85;7.38;;;19.00;99.90;;;;;;4992571;28;20442;-65
2023/09/13 02:36:45;;;;;;;12.00;7.10;;;19.00;99.90;;;;;;4992915;28;20054;-64
2023/09/13 02:39:36;;;;;;;9.82;6.95;;;18.90;99.90;;;;;;4992826;28;20501;-64
2023/09/13 02:42:04;;;;;;;15.77;7.28;;;18.90;99.90;;;;;;4993569;28;20054;-64
2023/09/13 02:44:31;;;;;;;10.65;6.50;;;18.90;99.90;;;;;;5010380;28;20046;-64
2023/09/13 02:46:58;;;;;;;10.93;6.45;;;18.80;99.90;;;;;;5013020;28;20092;-65
2023/09/13 02:49:24;;;;;;;11.93;7.03;;;18.70;99.90;;;;;;5012602;28;20465;-64
2023/09/13 02:51:52;;;;;;;9.65;6.10;;;18.80;99.90;;;;;;5012730;28;20149;-64
2023/09/13 02:54:19;;;;;;;10.27;5.90;;;18.80;99.90;;;;;;4997433;28;20046;-64
2023/09/13 02:56:46;;;;;;;9.40;5.32;;;18.80;99.90;;;;;;4993063;28;20421;-64
2023/09/13 02:59:12;;;;;;;10.52;5.55;;;18.70;99.90;;;;;;4992655;28;20069;-64
2023/09/13 03:01:41;;;;;;;11.15;6.28;;;18.80;99.90;;;;;;4992866;28;20046;-65
2023/09/13 03:04:07;;;;;;;9.73;5.90;;;18.70;99.90;;;;;;5007047;28;20053;-65
2023/09/13 03:06:34;;;;;;;13.50;5.68;;;18.70;99.90;;;;;;5012357;28;20385;-65
2023/09/13 03:09:00;;;;;;;10.40;5.68;;;18.70;99.90;;;;;;5012184;28;20042;-65
2023/09/13 03:11:26;;;;;;;9.65;5.35;;;18.60;99.90;;;;;;5012186;28;20156;-65
2023/09/13 03:13:53;;;;;;;7.53;6.22;;;18.70;99.90;;;;;;5000151;28;20054;-66
2023/09/13 03:16:21;;;;;;;12.85;6.10;;;18.60;99.90;;;;;;4992802;28;20050;-64
2023/09/13 03:18:49;;;;;;;10.10;5.50;;;18.60;99.90;;;;;;5008121;28;20121;-64
2023/09/13 03:21:18;;;;;;;7.55;5.43;;;18.50;99.90;;;;;;4990939;28;20061;-64
2023/09/13 03:23:48;;;;;;;7.45;5.47;;;18.50;99.90;;;;;;5003038;28;20056;-64
2023/09/13 03:26:17;;;;;;;10.95;4.95;;;18.50;99.90;;;;;;5011891;28;20064;-64
2023/09/13 03:28:51;;;;;;;10.38;5.15;;;18.50;99.90;;;;;;5011960;28;20143;-65
2023/09/13 03:31:20;;;;;;;9.23;5.15;;;18.60;99.90;;;;;;5011647;28;20065;-64
2023/09/13 03:33:48;;;;;;;8.23;5.03;;;18.60;99.90;;;;;;5001027;28;20054;-64
2023/09/13 03:36:16;;;;;;;12.57;5.72;;;18.60;99.90;;;;;;4992189;28;20116;-64
2023/09/13 03:38:44;;;;;;;7.53;5.00;;;18.60;99.90;;;;;;4992324;28;20061;-65
2023/09/13 03:41:19;;;;;;;10.63;5.13;;;18.60;99.90;;;;;;4991814;28;20110;-65
2023/09/13 03:43:45;;;;;;;6.40;4.50;;;18.60;99.90;;;;;;5002247;28;20319;-65
2023/09/13 03:46:12;;;;;;;9.32;5.28;;;18.50;99.90;;;;;;5011775;28;20073;-64
2023/09/13 03:48:39;;;;;;;11.23;5.10;;;18.60;99.90;;;;;;5011865;28;20049;-65
2023/09/13 03:51:07;;;;;;;6.50;4.63;;;18.40;99.90;;;;;;5010391;28;20054;-66
2023/09/13 03:53:34;;;;;;;9.88;5.22;;;18.50;99.90;;;;;;5002508;28;20073;-66
2023/09/13 03:56:01;;;;;;;7.72;4.95;;;18.50;99.90;;;;;;4992339;28;20094;-65
2023/09/13 03:58:28;;;;;;;11.25;5.38;;;18.40;99.90;;;;;;4991945;28;20073;-65
2023/09/13 04:00:55;;;;;;;6.95;4.93;;;18.30;99.90;;;;;;4991491;28;20098;-65
2023/09/13 04:03:22;;;;;;;11.05;6.10;;;18.40;99.90;;;;;;4999026;28;20057;-64
2023/09/13 04:05:49;;;;;;;9.60;4.95;;;18.30;99.90;;;;;;5012028;28;20050;-65
2023/09/13 04:08:16;;;;;;;10.32;6.15;;;18.30;99.90;;;;;;5011502;28;20541;-65
2023/09/13 04:10:42;;;;;;;11.02;5.50;;;18.30;99.90;;;;;;5011184;28;20466;-64
2023/09/13 04:13:08;;;;;;;10.02;5.50;;;18.20;99.90;;;;;;5006125;28;20378;-65
2023/09/13 04:15:34;;;;;;;9.38;5.25;;;18.10;99.90;;;;;;4992352;28;20058;-65
2023/09/13 04:18:01;;;;;;;8.20;5.30;;;18.00;99.90;;;;;;4991755;28;20060;-65
2023/09/13 04:20:27;;;;;;;11.82;5.50;;;18.10;99.90;;;;;;4990801;28;20347;-65
2023/09/13 04:22:54;;;;;;;7.85;4.72;;;18.00;99.90;;;;;;4993176;28;20333;-65
2023/09/13 04:25:20;;;;;;;8.77;4.45;;;18.00;99.90;;;;;;4992323;28;20356;-65
2023/09/13 04:27:47;;;;;;;10.30;4.80;;;17.80;99.90;;;;;;4991870;28;20051;-65
2023/09/13 04:30:15;;;;;;;9.00;4.50;;;17.90;99.90;;;;;;4991484;28;20058;-66
2023/09/13 04:32:42;;;;;;;8.60;5.00;;;17.90;99.90;;;;;;4993232;28;20050;-65
2023/09/13 04:35:09;;;;;;;9.40;4.65;;;17.90;99.90;;;;;;5011670;28;20054;-66
2023/09/13 04:37:35;;;;;;;8.55;5.05;;;18.00;99.90;;;;;;5011098;28;20050;-66
2023/09/13 04:40:05;;;;;;;8.50;4.35;;;17.90;99.90;;;;;;5009738;28;20061;-65
2023/09/13 04:42:42;;;;;;;4.82;3.40;;;17.90;99.90;;;;;;5013639;28;20060;-66
2023/09/13 04:45:08;;;;;;;6.97;3.25;;;17.80;99.90;;;;;;4976056;28;20051;-65
2023/09/13 04:47:35;;;;;;;7.10;4.18;;;17.90;99.90;;;;;;4975813;28;20054;-65
2023/09/13 04:50:02;;;;;;;8.73;3.88;;;17.80;99.90;;;;;;4975651;28;20129;-65
2023/09/13 04:52:28;;;;;;;5.28;3.08;;;17.80;99.90;;;;;;4976105;28;20411;-66
2023/09/13 04:54:54;;;;;;;5.15;3.40;;;17.90;99.90;;;;;;4995762;28;20323;-66
2023/09/13 04:57:21;;;;;;;6.85;3.00;;;17.80;99.90;;;;;;4995228;28;20050;-65
2023/09/13 04:59:51;;;;;;;3.90;2.53;;;17.80;99.90;;;;;;4994852;28;20122;-66
2023/09/13 05:02:17;;;;;;;5.72;2.83;;;17.90;99.90;;;;;;4993678;28;20042;-65
2023/09/13 05:04:44;;;;;;;5.55;3.10;;;17.90;99.90;;;;;;4992170;28;20050;-65
2023/09/13 05:07:10;;;;;;;4.50;2.40;;;17.90;99.90;;;;;;4995539;28;20050;-65
2023/09/13 05:09:40;;;;;;;4.00;2.20;;;17.80;99.90;;;;;;4993588;28;20061;-65
2023/09/13 05:12:07;;;;;;;4.45;2.33;;;17.80;99.90;;;;;;4993513;28;20053;-65
2023/09/13 05:14:36;;;;;;;4.45;2.05;;;17.80;99.90;;;;;;4992013;28;20050;-66
2023/09/13 05:17:03;;;;;;;4.75;1.77;;;17.70;99.90;;;;;;4994289;28;20072;-65
2023/09/13 05:19:29;;;;;;;5.70;1.70;;;17.70;99.90;;;;;;4993199;28;20050;-65
2023/09/13 05:21:55;;;;;;;8.18;1.90;;;17.70;99.90;;;;;;4992585;28;20058;-65
2023/09/13 05:24:22;;;;;;;2.80;1.35;;;17.60;99.90;;;;;;4994387;28;20048;-66
2023/09/13 05:26:48;;;;;;;6.55;2.00;;;17.40;99.90;;;;;;4993934;28;20046;-66
2023/09/13 05:29:14;;;;;;;5.10;1.70;;;17.30;99.90;;;;;;4994214;28;20043;-66
2023/09/13 05:31:40;;;;;;;6.00;2.10;;;17.00;99.90;;;;;;4994758;28;20098;-66
2023/09/13 05:34:07;;;;;;;6.47;1.98;;;16.80;99.90;;;;;;5005929;28;20410;-66
2023/09/13 05:36:33;;;;;;;7.47;2.03;;;16.50;99.90;;;;;;5011180;28;20381;-67
2023/09/13 05:38:59;;;;;;;8.90;2.30;;;16.20;99.90;;;;;;4994359;28;20057;-66
2023/09/13 05:41:26;;;;;;;5.85;2.17;;;16.10;99.90;;;;;;4993530;28;20042;-65
2023/09/13 05:43:52;;;;;;;8.13;2.50;;;15.80;99.90;;;;;;4996669;28;20042;-66
2023/09/13 05:46:18;;;;;;;10.15;2.92;;;15.60;99.90;;;;;;4993935;28;20086;-66
2023/09/13 05:48:44;;;;;;;15.60;3.30;;;15.40;99.90;;;;;;4993810;28;20046;-65
2023/09/13 05:51:11;;;;;;;6.28;2.40;;;15.30;99.90;;;;;;4990229;28;20050;-66
2023/09/13 05:53:37;;;;;;;6.18;2.20;;;15.30;99.90;;;;;;5001635;28;20046;-66
2023/09/13 05:56:04;;;;;;;4.90;2.03;;;15.30;99.90;;;;;;4997647;28;20498;-66
2023/09/13 05:58:30;;;;;;;4.95;2.13;;;15.10;99.90;;;;;;4994090;28;20046;-66
2023/09/13 06:00:57;;;;;;;5.75;2.58;;;15.20;99.90;;;;;;4993865;28;20054;-66
2023/09/13 06:03:23;;;;;;;6.07;2.08;;;15.20;99.90;;;;;;5000119;28;20042;-65
2023/09/13 06:05:50;;;;;;;5.50;1.95;;;15.10;99.90;;;;;;5009635;28;20058;-67
2023/09/13 06:08:17;;;;;;;5.97;2.05;;;15.20;99.90;;;;;;4993159;28;20069;-66
2023/09/13 06:10:45;;;;;;;5.28;2.00;;;15.10;99.90;;;;;;4993222;28;20124;-66
2023/09/13 06:13:11;;;;;;;4.32;2.10;;;15.10;99.90;;;;;;4991085;28;20059;-66
2023/09/13 06:15:38;;;;;;;4.95;2.53;;;15.10;99.90;;;;;;4992778;28;20045;-66
2023/09/13 06:18:05;;;;;;;4.85;2.13;;;15.10;99.90;;;;;;4995570;28;20116;-66
2023/09/13 06:20:31;;;;;;;4.47;2.28;;;15.10;99.90;;;;;;5005030;28;20046;-65
2023/09/13 06:22:59;;;;;;;4.97;2.20;;;15.20;99.90;;;;;;5005597;28;20102;-65
2023/09/13 06:25:25;;;;;;;4.13;2.10;;;15.20;99.90;;;;;;5014161;28;20050;-65
2023/09/13 06:27:51;;;;;;;6.05;2.33;;;15.10;99.90;;;;;;4997276;28;20050;-65
2023/09/13 06:30:19;;;;;;;5.38;2.03;;;15.20;99.90;;;;;;5011804;28;20383;-65
2023/09/13 06:32:46;;;;;;;4.15;2.28;;;15.20;99.90;;;;;;5011361;28;20054;-65
2023/09/13 06:35:13;;;;;;;2.90;2.25;;;15.10;99.90;;;;;;5000672;28;20470;-64
2023/09/13 06:37:40;;;;;;;4.82;2.22;;;15.10;99.90;;;;;;5013743;28;20046;-64
2023/09/13 06:40:07;;;;;;;4.07;1.83;;;15.00;99.90;;;;;;5011934;28;20421;-65
2023/09/13 06:42:34;;;;;;;3.72;1.80;;;15.10;99.90;;;;;;5012773;28;20378;-64
2023/09/13 06:45:02;;;;;;;5.35;2.15;;;15.00;99.90;;;;;;4994538;28;20056;-66
2023/09/13 06:47:30;;;;;;;6.57;2.22;;;15.00;99.90;;;;;;5010028;28;20054;-65
2023/09/13 06:49:56;;;;;;;6.35;2.25;;;15.10;99.90;;;;;;5011740;28;20050;-64
2023/09/13 06:52:23;;;;;;;6.25;2.65;;;14.90;99.90;;;;;;5004787;28;20050;-67
2023/09/13 06:54:49;;;;;;;6.38;2.53;;;14.90;99.90;;;;;;5009899;28;20046;-64
2023/09/13 06:57:16;;;;;;;8.10;2.35;;;14.90;99.90;;;;;;5011829;28;20404;-64
2023/09/13 06:59:42;;;;;;;8.65;2.83;;;14.80;99.90;;;;;;4994871;28;20538;-64
2023/09/13 07:02:08;;;;;;;10.65;3.63;;;14.90;99.90;;;;;;5012929;28;20046;-64
2023/09/13 07:04:35;;;;;;;6.55;2.67;;;14.80;99.90;;;;;;4995019;28;20478;-64
2023/09/13 07:07:01;;;;;;;7.20;2.72;;;14.80;99.90;;;;;;4992578;28;20130;-64
2023/09/13 07:09:27;;;;;;;7.82;3.13;;;14.90;99.90;;;;;;4992196;28;20046;-65
2023/09/13 07:11:53;;;;;;;8.45;2.88;;;14.90;99.90;;;;;;4993469;28;20425;-66
2023/09/13 07:14:20;;;;;;;8.60;3.28;;;15.00;99.90;;;;;;5005987;28;20050;-63
2023/09/13 07:16:46;;;;;;;7.05;3.13;;;15.00;99.90;;;;;;5002533;28;20061;-64
2023/09/13 07:19:12;;;;;;;5.40;3.10;;;14.90;99.90;;;;;;4992742;28;20054;-64
2023/09/13 07:21:38;;;;;;;9.13;3.38;;;14.90;99.90;;;;;;4992193;28;20057;-64
2023/09/13 07:24:06;;;;;;;10.52;3.50;;;15.00;99.90;;;;;;5002838;28;20133;-65
2023/09/13 07:26:32;;;;;;;8.60;3.17;;;15.10;99.90;;;;;;5003693;28;20076;-64
2023/09/13 07:29:00;;;;;;;12.23;3.67;;;15.10;99.90;;;;;;4991585;28;20054;-64
2023/09/13 07:31:27;;;;;;;9.98;3.53;;;15.20;99.90;;;;;;4993028;28;20057;-64
2023/09/13 07:33:53;;;;;;;5.60;2.95;;;15.10;99.90;;;;;;5011178;28;20053;-65
2023/09/13 07:36:23;;;;;;;6.05;3.00;;;15.00;99.90;;;;;;5012264;28;20046;-63
2023/09/13 07:38:49;;;;;;;8.77;3.72;;;15.10;99.90;;;;;;5012135;28;20103;-63
2023/09/13 07:41:15;;;;;;;8.63;3.20;;;15.00;99.90;;;;;;5012473;28;20046;-64
2023/09/13 07:43:41;;;;;;;8.82;3.53;;;15.20;99.90;;;;;;5003982;28;20042;-64
2023/09/13 07:46:08;;;;;;;5.05;2.70;;;15.20;99.90;;;;;;4993354;28;20058;-59
2023/09/13 07:48:34;;;;;;;7.50;3.60;;;15.20;99.90;;;;;;4992724;28;20063;-60
2023/09/13 07:51:00;;;;;;;6.05;3.03;;;15.30;99.90;;;;;;4993081;28;20062;-60
2023/09/13 07:53:26;;;;;;;7.38;3.03;;;15.30;99.90;;;;;;4998668;28;20122;-62
2023/09/13 07:55:53;;;;;;;9.40;3.20;;;15.40;99.90;;;;;;5011660;28;20053;-60
2023/09/13 07:58:19;;;;;;;10.50;3.45;;;15.40;99.90;;;;;;5012509;28;20050;-60
2023/09/13 08:00:46;;;;;;;9.27;3.30;;;15.50;99.90;;;;;;5012213;28;20046;-60
2023/09/13 08:03:12;;;;;;;8.30;3.28;;;15.50;99.90;;;;;;5008403;28;20050;-59
2023/09/13 08:05:38;;;;;;;9.32;2.97;;;15.60;99.90;;;;;;5008438;28;20054;-57
2023/09/13 08:08:05;;;;;;;7.88;3.33;;;15.60;99.90;;;;;;4991947;28;20054;-62
2023/09/13 08:10:31;;;;;;;10.07;3.70;;;15.70;99.90;;;;;;4992407;28;20051;-60
2023/09/13 08:12:57;;;;;;;10.52;3.67;;;15.80;99.90;;;;;;5009846;28;20047;-62
2023/09/13 08:15:24;;;;;;;7.65;2.95;;;15.80;99.90;;;;;;5012933;28;20046;-61
2023/09/13 08:17:50;;;;;;;6.60;3.70;;;15.90;99.90;;;;;;5015636;28;20120;-61
2023/09/13 08:20:16;;;;;;;8.80;3.35;;;15.90;99.90;;;;;;5016715;28;20061;-60
2023/09/13 08:22:42;;;;;;;9.75;3.17;;;15.90;99.90;;;;;;5011436;28;20046;-60
2023/09/13 08:25:09;;;;;;;8.02;3.42;;;15.90;99.90;;;;;;4994152;28;20046;-60
2023/09/13 08:27:35;;;;;;;9.60;3.05;;;15.90;99.90;;;;;;5012797;28;20351;-63
2023/09/13 08:30:03;;;;;;;7.65;3.53;;;15.80;99.90;;;;;;5016150;28;20104;-65
2023/09/13 08:32:30;;;;;;;9.77;3.45;;;16.00;99.90;;;;;;5016593;28;20042;-63
2023/09/13 08:34:56;;;;;;;11.50;3.72;;;15.90;99.90;;;;;;4998096;28;20144;-62
2023/09/13 08:37:24;;;;;;;8.32;3.08;;;16.10;99.90;;;;;;4996052;28;20408;-64
2023/09/13 08:39:51;;;;;;;9.02;3.75;;;16.20;99.90;;;;;;4996051;28;20142;-62
2023/09/13 08:42:17;;;;;;;9.43;3.28;;;16.10;99.90;;;;;;4996354;28;20109;-63
2023/09/13 08:44:45;;;;;;;5.45;2.95;;;16.20;99.90;;;;;;5011961;28;20050;-63
2023/09/13 08:47:12;;;;;;;7.63;2.90;;;16.30;99.90;;;;;;5015994;28;20058;-63
2023/09/13 08:49:39;;;;;;;8.27;3.17;;;16.50;99.90;;;;;;5015115;28;20466;-64
2023/09/13 08:52:06;;;;;;;10.48;2.92;;;16.50;99.90;;;;;;5009662;28;20095;-63
2023/09/13 08:54:34;;;;;;;10.88;3.95;;;16.70;99.90;;;;;;5010036;28;20382;-67
2023/09/13 08:57:02;;;;;;;7.72;2.80;;;16.60;99.90;;;;;;5015796;28;20432;-63
2023/09/13 08:59:29;;;;;;;8.65;3.08;;;16.80;99.90;;;;;;5015074;28;20054;-65
2023/09/13 09:01:57;;;;;;;6.45;3.05;;;16.70;99.90;;;;;;5014513;28;20509;-65
2023/09/13 09:04:23;;;;;;;7.05;2.90;;;16.80;99.90;;;;;;5002110;28;20533;-67
2023/09/13 09:06:50;;;;;;;5.55;2.50;;;16.80;99.90;;;;;;4996160;28;20109;-63
2023/09/13 09:09:21;;;;;;;9.50;3.22;;;17.00;99.90;;;;;;4995748;28;20054;-64
2023/09/13 09:11:56;;;;;;;8.18;3.03;;;16.80;99.90;;;;;;4996029;28;20085;-62
2023/09/13 09:14:24;;;;;;;6.25;2.33;;;17.10;99.90;;;;;;5007410;28;20461;-62
2023/09/13 09:16:52;;;;;;;6.50;2.58;;;17.10;99.90;;;;;;5015522;28;20049;-64
2023/09/13 09:19:18;;;;;;;7.28;2.60;;;17.30;99.90;;;;;;5014992;28;20042;-64
2023/09/13 09:21:49;;;;;;;7.40;2.55;;;17.40;99.90;;;;;;5015272;28;20141;-64
2023/09/13 09:24:29;;;;;;;6.15;2.35;;;17.40;99.90;;;;;;4984289;28;20042;-63
2023/09/13 09:26:56;;;;;;;5.75;2.58;;;17.50;99.90;;;;;;5002396;28;20077;-68
2023/09/13 09:29:34;;;;;;;5.78;1.95;;;17.40;99.90;;;;;;5013906;28;20520;-63
2023/09/13 09:32:00;;;;;;;;;;;17.30;99.90;;;;;;5015455;28;20049;-62
2023/09/13 09:34:31;;;;;;;5.97;2.45;;;17.50;99.90;;;;;;5000509;28;20199;-62
2023/09/13 09:37:07;;;;;;;5.00;2.20;;;17.50;99.90;;;;;;4993993;28;20046;-66
2023/09/13 09:39:37;;;;;;;5.45;2.50;;;17.60;99.90;;;;;;5009940;28;20125;-69
2023/09/13 09:42:04;;;;;;;4.93;2.30;;;17.50;99.90;;;;;;4993990;28;20378;-65
2023/09/13 09:44:30;;;;;;;8.57;2.40;;;17.40;99.90;;;;;;5008945;28;20092;-62
2023/09/13 09:46:57;;;;;;;8.48;2.28;;;17.60;99.90;;;;;;5013479;28;20458;-62
2023/09/13 09:49:25;;;;;;;6.18;3.05;;;17.60;99.90;;;;;;4996926;28;20061;-64
2023/09/13 09:51:52;;;;;;;6.00;2.30;;;17.50;99.90;;;;;;5014871;28;20053;-63
2023/09/13 09:54:18;;;;;;;5.18;2.08;;;17.80;99.90;;;;;;4996775;28;20050;-70
2023/09/13 09:56:44;;;;;;;7.20;2.33;;;18.00;99.90;;;;;;4989583;28;20055;-66
2023/09/13 09:59:11;;;;;;;5.78;2.83;;;18.10;99.90;;;;;;4975084;28;20096;-64
2023/09/13 10:01:38;;;;;;;5.85;2.38;;;18.30;99.90;;;;;;4975072;28;20047;-64
2023/09/13 10:04:11;;;;;;;6.28;3.42;;;18.40;99.90;;;;;;4988155;28;20054;-63
2023/09/13 10:06:56;;;;;;;5.82;2.25;;;18.30;99.90;;;;;;4992736;28;20476;-63
2023/09/13 10:09:22;;;;;;;6.10;2.40;;;18.40;99.90;;;;;;4994229;28;20058;-63
2023/09/13 10:11:56;;;;;;;9.48;2.47;;;18.30;99.90;;;;;;4993082;28;20058;-65
2023/09/13 10:14:27;;;;;;;5.93;2.30;;;18.40;99.90;;;;;;5005760;28;20071;-66
2023/09/13 10:16:54;;;;;;;5.63;2.35;;;18.40;99.90;;;;;;4996996;28;20050;-65
2023/09/13 10:19:23;;;;;;;4.65;2.10;;;18.40;99.90;;;;;;4992804;28;20077;-63
2023/09/13 10:21:51;;;;;;;4.03;2.20;;;17.70;99.90;;;;;;4992067;28;20051;-65
2023/09/13 10:24:20;;;;;;;5.20;2.45;;;17.30;99.90;;;;;;5004932;28;20049;-62
2023/09/13 10:26:52;;;;;;;4.20;2.00;;;16.80;99.90;;;;;;5004652;28;20049;-63
2023/09/13 10:29:30;;;;;;;5.32;2.10;;;16.70;99.90;;;;;;4992081;28;20062;-63
2023/09/13 10:32:05;;;;;;;4.72;2.00;;;16.60;99.90;;;;;;5005897;28;20054;-64
2023/09/13 10:34:35;;;;;;;4.93;2.90;;;16.70;99.90;;;;;;4990985;28;20050;-64
2023/09/13 10:37:47;;;;;;;4.90;2.80;;;16.70;99.90;;;;;;4993015;28;20181;-63
2023/09/13 10:40:28;;;;;;;4.20;2.20;;;16.80;99.90;;;;;;4993805;28;20054;-64
2023/09/13 10:42:55;;;;;;;6.88;2.30;;;17.00;99.90;;;;;;4993473;28;20468;-66
2023/09/13 10:45:22;;;;;;;6.85;2.60;;;17.00;99.90;;;;;;5013017;28;20046;-63
2023/09/13 10:47:50;;;;;;;7.45;2.53;;;17.10;99.90;;;;;;5012799;28;20061;-63
2023/09/13 10:50:17;;;;;;;7.45;2.42;;;17.10;99.90;;;;;;5012714;28;20429;-63
2023/09/13 10:52:44;;;;;;;7.68;2.92;;;16.80;99.90;;;;;;5013577;28;20509;-63
2023/09/13 10:55:12;;;;;;;6.20;3.10;;;16.60;99.90;;;;;;4993816;28;20526;-64
2023/09/13 10:57:42;;;;;;;7.85;2.95;;;16.60;99.90;;;;;;4976802;28;20054;-64
2023/09/13 11:00:09;;;;;;;7.03;3.17;;;16.60;99.90;;;;;;4993586;28;20050;-64
2023/09/13 11:02:37;;;;;;;6.75;3.22;;;16.60;99.90;;;;;;4993985;28;20050;-65
2023/09/13 11:05:04;;;;;;;6.80;3.00;;;16.60;99.90;;;;;;4993446;28;20053;-64
2023/09/13 11:07:43;;;;;;;8.02;3.17;;;16.80;99.90;;;;;;4994925;28;20430;-64
2023/09/13 11:10:14;;;;;;;7.30;3.58;;;16.90;99.90;;;;;;4994198;28;20508;-66
2023/09/13 11:12:48;;;;;;;6.88;3.13;;;17.00;99.90;;;;;;4992897;28;20046;-66
2023/09/13 11:15:21;;;;;;;7.45;4.20;;;17.20;99.90;;;;;;4993542;28;20054;-65
2023/09/13 11:17:47;;;;;;;8.45;3.35;;;17.20;99.90;;;;;;4989431;28;20047;-65
2023/09/13 11:20:21;;;;;;;7.57;3.15;;;17.50;99.90;;;;;;4973337;28;20109;-65
2023/09/13 11:23:05;;;;;;;7.63;3.15;;;17.80;99.90;;;;;;4973523;28;20065;-65
2023/09/13 11:25:40;;;;;;;7.97;3.30;;;17.80;99.90;;;;;;4973441;28;20046;-64
2023/09/13 11:28:08;;;;;;;4.82;2.53;;;17.90;99.90;;;;;;4972568;28;20388;-65
2023/09/13 11:30:49;;;;;;;7.93;3.38;;;18.10;99.90;;;;;;4957297;28;20055;-65
2023/09/13 11:33:15;;;;;;;5.05;2.83;;;18.30;99.90;;;;;;4979056;28;20065;-64
2023/09/13 11:35:45;;;;;;;6.90;2.80;;;18.30;99.90;;;;;;5012088;28;20164;-64
2023/09/13 11:38:12;;;;;;;5.88;2.63;;;18.40;99.90;;;;;;5012114;28;20470;-65
2023/09/13 11:40:49;;;;;;;7.47;3.28;;;18.40;99.90;;;;;;5012702;28;20446;-65
2023/09/13 11:43:26;;;;;;;6.05;3.15;;;18.50;99.90;;;;;;5011928;28;20104;-64
2023/09/13 11:45:57;;;;;;;7.32;3.00;;;18.50;99.90;;;;;;4996306;28;20478;-65
2023/09/13 11:48:40;;;;;;;4.30;2.70;;;18.60;99.90;;;;;;5012936;28;20054;-64
2023/09/13 11:51:12;;;;;;;7.00;3.00;;;18.80;99.90;;;;;;5012389;28;20445;-65
2023/09/13 11:53:39;;;;;;;7.57;3.13;;;18.80;99.90;;;;;;5005929;28;20096;-65
2023/09/13 11:56:08;;;;;;;7.13;3.28;;;18.90;99.90;;;;;;4993253;28;20058;-64
2023/09/13 11:58:36;;;;;;;5.47;3.05;;;19.00;99.90;;;;;;4992942;28;20332;-65
2023/09/13 12:01:06;;;;;;;7.30;3.05;;;19.20;99.90;;;;;;4993562;28;20058;-64
2023/09/13 12:03:36;;;;;;;5.63;3.00;;;19.20;99.90;;;;;;4993084;28;20046;-65
2023/09/13 12:06:03;;;;;;;5.47;3.45;;;19.30;99.90;;;;;;5009746;28;20054;-64
2023/09/13 12:08:31;;;;;;;4.93;2.72;;;19.20;99.90;;;;;;4993037;28;20050;-64
2023/09/13 12:11:00;;;;;;;5.97;3.53;;;19.30;99.90;;;;;;4992042;28;20137;-63
2023/09/13 12:13:44;;;;;;;6.90;2.95;;;19.20;99.90;;;;;;4994209;28;20139;-65
2023/09/13 12:16:11;;;;;;;5.88;2.78;;;19.40;99.90;;;;;;4992891;28;20118;-64
2023/09/13 12:18:39;;;;;;;6.25;3.10;;;19.50;99.90;;;;;;4976284;28;20058;-65
2023/09/13 12:21:10;;;;;;;5.93;2.97;;;19.60;99.90;;;;;;4992682;28;20391;-67
2023/09/13 12:23:38;;;;;;;4.97;3.00;;;19.70;99.90;;;;;;4997606;28;20386;-65
2023/09/13 12:26:09;;;;;;;6.15;3.00;;;19.70;99.90;;;;;;5011414;28;20161;-66
2023/09/13 12:28:39;;;;;;;6.45;3.35;;;19.80;99.90;;;;;;5010963;28;20053;-65
2023/09/13 12:31:09;;;;;;;4.90;3.10;;;19.80;99.90;;;;;;5012669;28;20050;-65
2023/09/13 12:33:51;;;;;;;7.60;2.72;;;19.80;99.90;;;;;;5002999;28;20407;-67
2023/09/13 12:36:18;;;;;;;6.47;3.15;;;19.80;99.90;;;;;;4972788;28;20117;-65
2023/09/13 12:38:46;;;;;;;6.53;3.15;;;19.80;99.90;;;;;;4973074;28;20050;-66
2023/09/13 12:41:18;;;;;;;8.65;3.40;;;19.90;99.90;;;;;;4973472;28;20043;-66
2023/09/13 12:43:49;;;;;;;4.80;2.83;;;20.00;99.90;;;;;;4980563;28;20482;-64
2023/09/13 12:46:25;;;;;;;9.13;6.13;;;20.20;99.90;;;;;;4993151;28;20058;-63
2023/09/13 12:48:53;;;;;;;6.20;3.03;;;19.70;99.90;;;;;;4992009;28;20133;-67
2023/09/13 12:51:22;;;;;;;5.20;3.10;;;19.60;99.90;;;;;;4992045;28;20053;-65